Selfridge Angb Airport
KMTC : now visible

Airfield :











YOU CAN JOIN US ON...

 
LOGIN :

Register | Disclaimer

   EN    FR    IT 

 









Legend :    VFR   Marginal VFR   IFR   Intensive IFR   Very Intensive IFR
Visi :
Ceiling :
>= 8 km
>= 3000ft
5 to 8 km
1000 to 3000 ft
1500m to 5 km
500 to 1000 ft
800 to 1500m
200 to 500 ft
< 800m
< 200 ft
Symbols :   Thunderstorms  Fog  Heavy snow  Heavy precipitations  Wind > 20 kt






- Airport Elevation : 580 ft


KMTC - Selfridge Angb

CURRENT METAR :
  • 040755Z AUTO 24004KT 10SM CLR M05/M10 A3030 RMK AO2 SLP273 T10541098

EXPIRED METARs :
  • 040655Z AUTO 25007KT 10SM CLR M05/M09 A3030 RMK AO2 SLP273 T10481093
  • 040555Z AUTO 27008KT 10SM CLR M04/M09 A3031 RMK AO2 SLP276 T10411090 11007 21041 50001
  • 040455Z AUTO 26009KT 10SM CLR M03/M09 A3032 RMK AO2 SLP279 T10341087 401181037

TAF AMD TAF KMTC
Valid from the 03 at 23:00 until the 05 at 02:00 UTC


032330Z 0323/0502 28009KT 9999 SCT040 QNH3005INS
BECMG 0401/0402 24009KT 9999 SKC QNH3024INS
BECMG 0415/0416 21012G18KT 9999 SKC QNH3015INS
BECMG 0419/0420 19009KT 9999 SKC QNH3005INS TX03/0420Z TNM03/0412Z LAST NO AMDS AFT 0404 NEXT 0412
KZOB FIR / North America



MET'MAP, your aeronautical weather chart ! - Copyright ORBIFLY December 2007 - Disclaimer

ORBIFLY MET'MAP TEAM :

Programming & Development : Alexandra Zaïnal
Original concept : Baudouin d'Aumeries
Technical & hardware support : Manuel Goepfert
Assistance : Marc-Olivier Méhu




SOURCES & CREDITS :

   NOAA       Earth
Advisory